Terminal Aerodrome Forecast
Issued by NWS Bismarck, ND

Home | Current Version | Previous Version | Graphics & Text | Print | Product List | Glossary On
Versions: 1 2 3 4 5 6 7 8 9 10 11 12 13 14 15 16 17
000
FTUS43 KBIS 250500 RRA
TAFISN
TAF
KISN 250544Z 2506/2606 07008KT P6SM OVC010
     FM250900 02013KT P6SM OVC010
      TEMPO 2510/2514 3SM -SN BR OVC007
     FM251800 35014KT P6SM BKN035
     FM252100 34016KT P6SM SCT035=

USA.gov is the U.S. government's official web portal to all federal, state and local government web resources and services.